createdAt,value
2023-03-05T00:01:38.422Z,1.70
2023-03-05T00:04:08.284Z,2.30
2023-03-05T00:06:37.639Z,2.90
2023-03-05T00:09:05.877Z,2.50
2023-03-05T00:11:38.334Z,2.40
2023-03-05T00:14:06.891Z,3.40
2023-03-05T00:16:34.999Z,3.00
2023-03-05T00:19:05.663Z,4.10
2023-03-05T00:21:36.540Z,2.90
2023-03-05T00:24:11.799Z,3.30
2023-03-05T00:26:42.422Z,2.60
2023-03-05T00:29:11.693Z,2.30
2023-03-05T00:31:44.412Z,4.70
2023-03-05T00:34:14.108Z,2.20
2023-03-05T00:36:43.279Z,2.40
2023-03-05T00:39:12.302Z,4.20
2023-03-05T00:41:40.587Z,3.00
2023-03-05T00:45:53.461Z,1.30
2023-03-05T00:48:21.941Z,2.50
2023-03-05T00:50:49.005Z,2.60
2023-03-05T00:53:15.775Z,3.30
2023-03-05T00:55:42.357Z,2.40
2023-03-05T00:58:09.416Z,1.80
2023-03-05T01:00:36.098Z,2.80
2023-03-05T01:03:04.064Z,3.60
2023-03-05T01:05:31.114Z,3.90
2023-03-05T01:07:58.888Z,1.80
2023-03-05T01:10:31.755Z,2.50
2023-03-05T01:13:00.941Z,2.30
2023-03-05T01:15:28.313Z,1.10
2023-03-05T01:17:55.045Z,2.00
2023-03-05T01:20:21.873Z,1.70
2023-03-05T01:22:49.042Z,2.90
2023-03-05T01:25:16.121Z,4.00
2023-03-05T01:27:42.781Z,1.40
2023-03-05T01:30:12.718Z,3.20
2023-03-05T01:32:40.457Z,6.90
2023-03-05T01:35:07.938Z,2.40
2023-03-05T01:37:35.913Z,1.30
2023-03-05T01:40:02.837Z,2.20
2023-03-05T01:42:34.380Z,2.80
2023-03-05T01:45:14.465Z,1.50
2023-03-05T01:47:41.136Z,2.20
2023-03-05T01:50:19.323Z,2.50
2023-03-05T01:52:50.050Z,1.70
2023-03-05T01:55:22.516Z,2.80
2023-03-05T01:57:51.630Z,1.90
2023-03-05T02:00:20.621Z,3.30
2023-03-05T02:02:49.607Z,1.40
2023-03-05T02:05:26.508Z,2.60
2023-03-05T02:07:55.099Z,2.90
2023-03-05T02:10:29.758Z,1.70
2023-03-05T02:12:58.365Z,3.30
2023-03-05T02:15:25.050Z,1.80
2023-03-05T02:17:51.669Z,3.50
2023-03-05T02:20:28.603Z,1.80
2023-03-05T02:22:55.613Z,1.20
2023-03-05T02:25:25.813Z,1.20
2023-03-05T02:28:11.074Z,2.60
2023-03-05T02:30:41.013Z,2.30
2023-03-05T02:33:07.956Z,2.70
2023-03-05T02:35:35.320Z,1.50
2023-03-05T02:38:03.271Z,2.20
2023-03-05T02:40:29.887Z,2.70
2023-03-05T02:42:56.465Z,2.90
2023-03-05T02:45:23.576Z,0.90
2023-03-05T02:47:50.510Z,3.80
2023-03-05T02:50:17.393Z,6.00
2023-03-05T02:52:44.672Z,1.50
2023-03-05T02:55:14.905Z,3.30
2023-03-05T02:57:42.154Z,1.70
2023-03-05T03:00:09.909Z,1.00
2023-03-05T03:02:38.328Z,1.60
2023-03-05T03:05:07.532Z,2.60
2023-03-05T03:07:35.997Z,2.30
2023-03-05T03:10:05.000Z,2.80
2023-03-05T03:12:31.631Z,2.50
2023-03-05T03:15:00.216Z,4.30
2023-03-05T03:17:36.302Z,0.90
2023-03-05T03:20:07.550Z,0.90
2023-03-05T03:22:34.083Z,2.00
2023-03-05T03:25:00.908Z,1.30
2023-03-05T03:27:27.826Z,2.80
2023-03-05T03:29:54.445Z,3.20
2023-03-05T03:32:21.685Z,2.20
2023-03-05T03:34:48.456Z,2.60
2023-03-05T03:37:15.545Z,6.90
2023-03-05T03:39:42.173Z,1.90
2023-03-05T03:42:09.345Z,1.10
2023-03-05T03:44:36.087Z,5.50
2023-03-05T03:47:03.512Z,2.80
2023-03-05T03:49:30.796Z,2.80
2023-03-05T03:51:58.160Z,4.70
2023-03-05T03:54:24.842Z,2.80
2023-03-05T03:56:52.028Z,2.20
2023-03-05T03:59:19.100Z,1.20
2023-03-05T04:01:45.963Z,2.40
2023-03-05T04:04:12.671Z,2.40
2023-03-05T04:06:39.988Z,3.00
2023-03-05T04:11:39.813Z,2.70
2023-03-05T04:14:07.172Z,2.40
2023-03-05T04:16:36.834Z,2.10
2023-03-05T04:19:03.535Z,2.20
2023-03-05T04:21:30.205Z,1.90
2023-03-05T04:23:57.112Z,3.30
2023-03-05T04:26:23.896Z,1.70
2023-03-05T04:28:50.438Z,4.30
2023-03-05T04:31:17.036Z,1.70
2023-03-05T04:33:46.868Z,2.80
2023-03-05T04:36:13.499Z,4.70
2023-03-05T04:38:46.040Z,2.00
2023-03-05T04:41:12.742Z,2.00
2023-03-05T04:43:39.350Z,2.30
2023-03-05T04:46:06.061Z,1.80
2023-03-05T04:48:32.872Z,2.80
2023-03-05T04:51:00.278Z,2.40
2023-03-05T04:53:27.340Z,6.20
2023-03-05T04:56:00.852Z,2.80
2023-03-05T04:58:28.152Z,5.00
2023-03-05T05:01:00.431Z,1.90
2023-03-05T05:03:27.096Z,2.90
2023-03-05T05:05:55.495Z,3.60
2023-03-05T05:08:22.692Z,2.50
2023-03-05T05:11:01.349Z,2.90
2023-03-05T05:13:30.401Z,3.90
2023-03-05T05:15:57.315Z,2.20
2023-03-05T05:18:24.620Z,3.60
2023-03-05T05:20:52.643Z,2.50
2023-03-05T05:23:19.419Z,2.90
2023-03-05T05:25:46.460Z,7.00
2023-03-05T05:28:13.715Z,3.80
2023-03-05T05:30:40.762Z,7.00
2023-03-05T05:33:08.015Z,1.90
2023-03-05T05:35:38.755Z,3.50
2023-03-05T05:38:05.483Z,5.40
2023-03-05T05:40:33.552Z,4.40
2023-03-05T05:43:00.251Z,3.40
2023-03-05T05:45:26.915Z,3.00
2023-03-05T05:47:53.998Z,2.90
2023-03-05T05:50:26.770Z,2.40
2023-03-05T05:52:53.848Z,1.90
2023-03-05T05:55:20.708Z,2.90
2023-03-05T05:58:07.092Z,2.20
2023-03-05T06:00:33.836Z,3.80
2023-03-05T06:03:00.450Z,4.40
2023-03-05T06:05:27.084Z,6.50
2023-03-05T06:07:54.186Z,1.90
2023-03-05T06:10:21.044Z,4.20
2023-03-05T06:12:48.098Z,4.70
2023-03-05T06:15:14.973Z,4.50
2023-03-05T06:17:42.213Z,4.40
2023-03-05T06:20:11.915Z,3.60
2023-03-05T06:22:38.982Z,2.10
2023-03-05T06:25:07.161Z,5.50
2023-03-05T06:27:34.866Z,4.80
2023-03-05T06:30:01.844Z,4.10
2023-03-05T06:32:29.118Z,3.30
2023-03-05T06:34:55.767Z,3.40
2023-03-05T06:37:22.448Z,3.10
2023-03-05T06:39:49.292Z,5.40
2023-03-05T06:42:18.792Z,4.80
2023-03-05T06:44:47.258Z,7.70
2023-03-05T06:47:14.953Z,4.30
2023-03-05T06:49:42.383Z,6.80
2023-03-05T06:52:12.185Z,6.30
2023-03-05T06:54:39.701Z,5.70
2023-03-05T06:57:06.693Z,2.70
2023-03-05T06:59:33.624Z,3.60
2023-03-05T07:02:00.607Z,3.80
2023-03-05T07:04:27.623Z,2.80
2023-03-05T07:06:55.250Z,2.00
2023-03-05T07:09:22.202Z,4.70
2023-03-05T07:11:49.720Z,3.40
2023-03-05T07:14:17.210Z,8.70
2023-03-05T07:16:44.888Z,2.50
2023-03-05T07:19:14.884Z,3.60
2023-03-05T07:21:41.667Z,2.30
2023-03-05T07:24:13.713Z,2.70
2023-03-05T07:26:42.173Z,4.00
2023-03-05T07:29:09.349Z,4.40
2023-03-05T07:31:38.745Z,4.60
2023-03-05T07:34:05.910Z,2.60
2023-03-05T07:36:34.383Z,3.30
2023-03-05T07:39:05.303Z,3.10
2023-03-05T07:41:35.069Z,3.50
2023-03-05T07:44:02.849Z,2.50
2023-03-05T07:46:32.199Z,2.40
2023-03-05T07:48:59.670Z,4.00
2023-03-05T07:51:26.672Z,3.90
2023-03-05T07:53:57.125Z,5.10
2023-03-05T07:56:31.376Z,4.90
2023-03-05T07:58:59.145Z,3.90
2023-03-05T08:01:26.487Z,1.90
2023-03-05T08:03:53.124Z,2.90
2023-03-05T08:06:20.432Z,2.80
2023-03-05T08:08:48.296Z,4.30
2023-03-05T08:11:16.584Z,2.80
2023-03-05T08:13:44.860Z,2.40
2023-03-05T08:16:20.294Z,3.60
2023-03-05T08:18:54.876Z,2.40
2023-03-05T08:21:26.448Z,4.70
2023-03-05T08:23:53.247Z,4.60
2023-03-05T08:26:21.415Z,2.20
2023-03-05T08:28:48.429Z,2.60
2023-03-05T08:31:20.934Z,2.60
2023-03-05T08:33:51.649Z,4.80
2023-03-05T08:36:18.776Z,2.90
2023-03-05T08:38:47.988Z,4.80
2023-03-05T08:41:15.854Z,2.60
2023-03-05T08:43:42.750Z,5.00
2023-03-05T08:46:11.454Z,2.80
2023-03-05T08:48:38.668Z,4.80
2023-03-05T08:51:09.571Z,3.70
2023-03-05T08:53:39.112Z,4.30
2023-03-05T08:56:18.034Z,2.80
2023-03-05T08:58:48.338Z,6.10
2023-03-05T09:01:17.829Z,3.70
2023-03-05T09:03:46.015Z,3.60
2023-03-05T09:06:12.950Z,2.30
2023-03-05T09:08:42.042Z,8.60
2023-03-05T09:11:09.598Z,2.80
2023-03-05T09:13:36.582Z,5.00
2023-03-05T09:16:07.650Z,2.30
2023-03-05T09:18:36.188Z,4.40
2023-03-05T09:21:06.954Z,3.00
2023-03-05T09:23:33.854Z,2.70
2023-03-05T09:26:01.781Z,3.10
2023-03-05T09:28:30.491Z,3.10
2023-03-05T09:30:57.193Z,5.30
2023-03-05T09:33:24.306Z,5.10
2023-03-05T09:35:51.115Z,5.70
2023-03-05T09:38:18.797Z,3.50
2023-03-05T09:41:08.092Z,3.70
2023-03-05T09:44:01.208Z,4.30
2023-03-05T09:46:43.280Z,3.30
2023-03-05T09:49:33.264Z,2.80
2023-03-05T09:52:14.837Z,2.10
2023-03-05T09:54:43.070Z,3.80
2023-03-05T09:57:21.608Z,2.30
2023-03-05T10:00:11.675Z,4.70
2023-03-05T10:02:48.721Z,3.10
2023-03-05T10:05:29.194Z,4.10
2023-03-05T10:10:39.241Z,2.40
2023-03-05T10:13:18.233Z,1.90
2023-03-05T10:16:26.132Z,2.90
2023-03-05T10:19:02.400Z,3.20
2023-03-05T10:21:50.838Z,5.70
2023-03-05T10:24:47.687Z,1.60
2023-03-05T10:27:21.981Z,1.60
2023-03-05T10:30:38.511Z,2.50
2023-03-05T10:33:20.116Z,4.60
2023-03-05T10:36:05.620Z,2.60
2023-03-05T10:38:52.827Z,2.90
2023-03-05T10:41:39.418Z,2.90
2023-03-05T10:44:39.282Z,3.10
2023-03-05T10:47:29.031Z,4.50
2023-03-05T10:49:57.752Z,2.20
2023-03-05T10:52:34.771Z,3.10
2023-03-05T10:55:13.253Z,2.80
2023-03-05T10:57:40.890Z,2.60
2023-03-05T11:00:22.867Z,2.70
2023-03-05T11:03:01.128Z,3.70
2023-03-05T11:05:38.077Z,2.00
2023-03-05T11:08:33.653Z,5.10
2023-03-05T11:11:09.741Z,1.70
2023-03-05T11:13:47.778Z,2.90
2023-03-05T11:16:19.909Z,3.00
2023-03-05T11:18:48.169Z,2.40
2023-03-05T11:21:20.190Z,3.50
2023-03-05T11:24:08.517Z,3.10
2023-03-05T11:26:35.843Z,3.40
2023-03-05T11:29:04.264Z,3.50
2023-03-05T11:31:32.107Z,3.00
2023-03-05T11:34:01.562Z,3.30
2023-03-05T11:36:56.104Z,2.70
2023-03-05T11:41:54.161Z,2.60
2023-03-05T11:44:46.232Z,4.00
2023-03-05T11:47:27.971Z,4.70
2023-03-05T11:50:02.989Z,3.80
2023-03-05T11:52:33.854Z,4.20
2023-03-05T11:55:12.878Z,2.50
2023-03-05T11:57:52.352Z,2.90
2023-03-05T12:00:23.921Z,2.70
2023-03-05T12:02:52.613Z,3.80
2023-03-05T12:05:19.535Z,3.90
2023-03-05T12:07:51.324Z,3.40
2023-03-05T12:10:23.515Z,1.80
2023-03-05T12:13:02.976Z,3.10
2023-03-05T12:15:59.254Z,2.60
2023-03-05T12:18:38.022Z,2.20
2023-03-05T12:21:26.100Z,3.60
2023-03-05T12:24:01.266Z,3.10
2023-03-05T12:27:03.643Z,3.70
2023-03-05T12:29:37.032Z,4.10
2023-03-05T12:32:21.493Z,3.50
2023-03-05T12:34:50.122Z,2.80
2023-03-05T12:37:21.249Z,4.70
2023-03-05T12:40:08.885Z,2.20
2023-03-05T12:42:37.788Z,2.20
2023-03-05T12:45:23.246Z,2.10
2023-03-05T12:47:56.613Z,2.90
2023-03-05T12:50:28.906Z,3.80
2023-03-05T12:53:11.412Z,7.60
2023-03-05T12:55:45.482Z,8.40
2023-03-05T12:58:28.679Z,8.50
2023-03-05T13:04:00.391Z,3.40
2023-03-05T13:06:27.686Z,3.50
2023-03-05T13:09:07.908Z,3.30
2023-03-05T13:11:37.135Z,2.30
2023-03-05T13:14:04.325Z,4.90
2023-03-05T13:16:41.015Z,2.70
2023-03-05T13:19:15.487Z,3.50
2023-03-05T13:21:42.772Z,2.60
2023-03-05T13:24:17.460Z,5.00
2023-03-05T13:26:48.240Z,2.70
2023-03-05T13:29:21.432Z,4.30
2023-03-05T13:32:05.104Z,5.70
2023-03-05T13:34:47.333Z,2.10
2023-03-05T13:37:20.719Z,2.40
2023-03-05T13:39:58.077Z,3.00
2023-03-05T13:42:28.031Z,2.80
2023-03-05T13:45:03.774Z,4.50
2023-03-05T13:47:32.188Z,2.80
2023-03-05T13:50:01.442Z,3.60
2023-03-05T13:52:35.371Z,4.40
2023-03-05T13:55:12.064Z,4.70
2023-03-05T13:57:43.377Z,3.20
2023-03-05T14:00:33.615Z,3.70
2023-03-05T14:03:26.009Z,3.50
2023-03-05T14:05:53.347Z,4.60
2023-03-05T14:08:22.022Z,2.90
2023-03-05T14:10:49.192Z,4.00
2023-03-05T14:13:21.145Z,4.30
2023-03-05T14:16:23.930Z,3.00
2023-03-05T14:18:58.122Z,3.60
2023-03-05T14:21:25.385Z,2.50
2023-03-05T14:23:54.177Z,3.50
2023-03-05T14:26:34.238Z,4.30
2023-03-05T14:29:03.135Z,2.30
2023-03-05T14:31:36.621Z,7.30
2023-03-05T14:34:04.983Z,3.80
2023-03-05T14:36:33.831Z,3.20
2023-03-05T14:39:01.767Z,3.70
2023-03-05T14:41:37.483Z,5.30
2023-03-05T14:44:15.087Z,4.50
2023-03-05T14:46:48.882Z,2.70
2023-03-05T14:49:17.128Z,3.90
2023-03-05T14:51:44.460Z,5.30
2023-03-05T14:54:20.074Z,4.20
2023-03-05T14:56:49.048Z,4.40
2023-03-05T14:59:17.294Z,6.60
2023-03-05T15:01:44.393Z,4.50
2023-03-05T15:04:20.358Z,4.90
2023-03-05T15:06:50.133Z,5.50
2023-03-05T15:09:19.142Z,3.80
2023-03-05T15:11:48.338Z,4.80
2023-03-05T15:14:15.330Z,4.30
2023-03-05T15:16:43.086Z,5.20
2023-03-05T15:19:12.659Z,7.00
2023-03-05T15:21:40.398Z,7.90
2023-03-05T15:24:14.236Z,4.80
2023-03-05T15:26:41.040Z,5.50
2023-03-05T15:29:07.639Z,4.70
2023-03-05T15:31:37.748Z,5.20
2023-03-05T15:34:04.853Z,4.30
2023-03-05T15:36:33.583Z,3.80
2023-03-05T15:39:00.796Z,4.80
2023-03-05T15:41:27.677Z,11.40
2023-03-05T15:43:54.580Z,5.00
2023-03-05T15:46:21.386Z,5.00
2023-03-05T15:48:49.576Z,3.30
2023-03-05T15:51:17.293Z,4.80
2023-03-05T15:53:45.867Z,3.60
2023-03-05T15:56:18.603Z,4.10
2023-03-05T15:58:45.374Z,5.50
2023-03-05T16:01:12.297Z,6.60
2023-03-05T16:03:39.436Z,6.50
2023-03-05T16:06:07.742Z,7.50
2023-03-05T16:08:35.422Z,6.50
2023-03-05T16:11:02.576Z,10.40
2023-03-05T16:13:31.927Z,29.90
2023-03-05T16:16:01.844Z,16.90
2023-03-05T16:18:35.514Z,12.50
2023-03-05T16:21:03.108Z,24.10
2023-03-05T16:23:33.647Z,11.40
2023-03-05T16:26:00.473Z,11.10
2023-03-05T16:28:27.758Z,8.00
2023-03-05T16:30:56.190Z,10.50
2023-03-05T16:33:26.587Z,6.80
2023-03-05T16:36:20.234Z,7.20
2023-03-05T16:38:51.796Z,10.50
2023-03-05T16:41:21.111Z,9.70
2023-03-05T16:43:51.209Z,14.90
2023-03-05T16:46:18.043Z,14.90
2023-03-05T16:48:46.017Z,11.60
2023-03-05T16:51:13.736Z,17.40
2023-03-05T16:53:42.943Z,14.80
2023-03-05T16:56:10.714Z,16.00
2023-03-05T16:58:40.060Z,18.90
2023-03-05T17:01:11.586Z,14.90
2023-03-05T17:03:40.788Z,12.20
2023-03-05T17:06:15.330Z,13.30
2023-03-05T17:08:43.181Z,13.00
2023-03-05T17:11:10.098Z,16.70
2023-03-05T17:13:39.347Z,12.40
2023-03-05T17:16:08.743Z,14.00
2023-03-05T17:18:39.317Z,12.80
2023-03-05T17:21:06.926Z,14.20
2023-03-05T17:23:34.942Z,12.50
2023-03-05T17:26:07.470Z,13.70
2023-03-05T17:28:34.751Z,17.20
2023-03-05T17:31:03.361Z,14.80
2023-03-05T17:33:31.636Z,16.60
2023-03-05T17:35:59.866Z,18.40
2023-03-05T17:38:26.729Z,19.30
2023-03-05T17:40:54.751Z,18.70
2023-03-05T17:43:22.149Z,15.00
2023-03-05T17:45:49.271Z,17.40
2023-03-05T17:48:17.423Z,15.40
2023-03-05T17:50:45.853Z,16.10
2023-03-05T17:53:13.499Z,10.50
2023-03-05T17:55:43.015Z,10.70
2023-03-05T17:58:10.865Z,14.20
2023-03-05T18:00:37.810Z,12.00
2023-03-05T18:03:06.368Z,20.60
2023-03-05T18:05:33.503Z,20.80
2023-03-05T18:08:03.347Z,11.00
2023-03-05T18:10:31.318Z,14.10
2023-03-05T18:12:58.421Z,12.10
2023-03-05T18:15:27.164Z,9.40
2023-03-05T18:17:54.669Z,8.40
2023-03-05T18:20:31.007Z,9.70
2023-03-05T18:22:59.274Z,7.80
2023-03-05T18:25:30.303Z,9.80
2023-03-05T18:28:09.413Z,7.10
2023-03-05T18:30:37.529Z,9.00
2023-03-05T18:33:08.625Z,7.40
2023-03-05T18:35:36.269Z,10.00
2023-03-05T18:38:03.404Z,14.00
2023-03-05T18:40:32.017Z,9.00
2023-03-05T18:43:01.393Z,8.50
2023-03-05T18:45:28.512Z,9.60
2023-03-05T18:47:56.349Z,9.70
2023-03-05T18:50:24.971Z,9.00
2023-03-05T18:52:52.340Z,12.10
2023-03-05T18:55:21.662Z,12.10
2023-03-05T18:57:48.711Z,15.70
2023-03-05T19:00:17.679Z,29.80
2023-03-05T19:02:44.829Z,17.60
2023-03-05T19:05:13.177Z,16.30
2023-03-05T19:07:40.018Z,11.40
2023-03-05T19:10:09.104Z,15.00
2023-03-05T19:12:44.645Z,16.90
2023-03-05T19:15:12.823Z,15.50
2023-03-05T19:17:40.066Z,16.30
2023-03-05T19:20:07.534Z,12.20
2023-03-05T19:22:37.707Z,9.50
2023-03-05T19:25:05.782Z,9.00
2023-03-05T19:27:33.968Z,11.50
2023-03-05T19:30:00.652Z,10.10
2023-03-05T19:32:27.614Z,8.80
2023-03-05T19:34:55.698Z,31.00
2023-03-05T19:37:22.452Z,39.50
2023-03-05T19:39:49.286Z,18.60
2023-03-05T19:42:15.869Z,17.10
2023-03-05T19:44:42.708Z,10.50
2023-03-05T19:47:09.679Z,10.30
2023-03-05T19:49:36.883Z,12.90
2023-03-05T19:52:05.650Z,9.60
2023-03-05T19:54:32.778Z,14.30
2023-03-05T19:56:59.679Z,9.90
2023-03-05T19:59:26.576Z,7.90
2023-03-05T20:01:53.316Z,11.50
2023-03-05T20:04:22.125Z,15.00
2023-03-05T20:06:49.541Z,14.20
2023-03-05T20:09:20.294Z,15.40
2023-03-05T20:11:47.269Z,17.70
2023-03-05T20:14:14.793Z,21.70
2023-03-05T20:16:42.724Z,26.70
2023-03-05T20:19:15.625Z,33.90
2023-03-05T20:21:42.769Z,41.40
2023-03-05T20:24:12.843Z,22.90
2023-03-05T20:26:41.792Z,17.30
2023-03-05T20:29:08.659Z,17.50
2023-03-05T20:31:37.518Z,17.00
2023-03-05T20:34:05.827Z,12.90
2023-03-05T20:36:36.194Z,9.30
2023-03-05T20:39:04.172Z,8.50
2023-03-05T20:41:33.672Z,12.10
2023-03-05T20:44:02.828Z,10.40
2023-03-05T20:46:35.145Z,9.10
2023-03-05T20:49:02.968Z,10.60
2023-03-05T20:51:35.280Z,12.10
2023-03-05T20:54:05.262Z,11.90
2023-03-05T20:56:32.567Z,12.50
2023-03-05T20:59:02.276Z,13.50
2023-03-05T21:01:30.165Z,11.80
2023-03-05T21:04:01.024Z,11.60
2023-03-05T21:06:28.464Z,15.70
2023-03-05T21:08:55.456Z,10.90
2023-03-05T21:11:22.363Z,12.00
2023-03-05T21:13:49.209Z,13.00
2023-03-05T21:16:21.742Z,12.80
2023-03-05T21:18:50.257Z,8.60
2023-03-05T21:21:17.193Z,11.10
2023-03-05T21:23:44.205Z,12.80
2023-03-05T21:26:13.009Z,12.80
2023-03-05T21:28:40.398Z,8.50
2023-03-05T21:31:16.445Z,10.80
2023-03-05T21:33:44.103Z,10.60
2023-03-05T21:36:10.948Z,9.00
2023-03-05T21:38:38.264Z,10.20
2023-03-05T21:41:08.988Z,9.20
2023-03-05T21:43:36.168Z,11.90
2023-03-05T21:46:03.611Z,15.10
2023-03-05T21:48:30.777Z,18.60
2023-03-05T21:50:57.942Z,13.10
2023-03-05T21:53:27.841Z,16.30
2023-03-05T21:56:20.248Z,12.20
2023-03-05T21:58:51.754Z,12.80
2023-03-05T22:01:20.669Z,9.70
2023-03-05T22:03:47.513Z,11.20
2023-03-05T22:06:16.174Z,9.00
2023-03-05T22:08:42.825Z,10.20
2023-03-05T22:11:17.416Z,8.60
2023-03-05T22:13:44.603Z,10.10
2023-03-05T22:16:13.753Z,11.10
2023-03-05T22:18:40.533Z,9.00
2023-03-05T22:21:15.613Z,12.00
2023-03-05T22:23:42.299Z,14.70
2023-03-05T22:26:09.450Z,21.80
2023-03-05T22:28:38.312Z,19.00
2023-03-05T22:31:05.369Z,15.20
2023-03-05T22:33:32.032Z,17.30
2023-03-05T22:35:58.829Z,10.50
2023-03-05T22:38:26.303Z,14.90
2023-03-05T22:40:55.180Z,13.20
2023-03-05T22:43:21.939Z,8.50
2023-03-05T22:45:48.650Z,14.00
2023-03-05T22:48:15.351Z,9.80
2023-03-05T22:50:43.334Z,10.20
2023-03-05T22:53:10.820Z,7.70
2023-03-05T22:55:40.858Z,7.70
2023-03-05T22:58:07.793Z,8.30
2023-03-05T23:00:35.157Z,10.00
2023-03-05T23:03:01.970Z,9.30
2023-03-05T23:05:30.006Z,7.80
2023-03-05T23:07:56.949Z,11.20
2023-03-05T23:10:28.024Z,9.20
2023-03-05T23:12:55.958Z,10.60
2023-03-05T23:15:34.169Z,10.70
2023-03-05T23:18:01.605Z,11.00
2023-03-05T23:20:31.279Z,7.40
2023-03-05T23:22:58.038Z,6.80
2023-03-05T23:25:26.769Z,9.30
2023-03-05T23:27:54.118Z,9.10
2023-03-05T23:30:28.375Z,10.30
2023-03-05T23:33:01.338Z,17.40
2023-03-05T23:35:35.111Z,11.90
2023-03-05T23:38:05.985Z,14.30
2023-03-05T23:40:35.994Z,19.30
2023-03-05T23:43:02.735Z,18.90
2023-03-05T23:45:29.559Z,19.00
2023-03-05T23:47:57.906Z,16.60
2023-03-05T23:50:27.906Z,17.70
2023-03-05T23:52:55.128Z,16.30
2023-03-05T23:55:27.660Z,15.20
2023-03-05T23:57:58.066Z,16.10
